Flight Track Log - Related Links

Times and Time Zones

All times are in EDT time to prevent confusion due to time zone crossing. See the ASQ4086 flight status page for this flight to view local times or setup timezone preferences in your user account.

Time Position Orientation Groundspeed Altitude Reporting Facility
EDT Latitude Longitude Course Direction KTS MPH feet Rate Location/Type
Sun 04:52:44 PM 29.9794 -95.3536 351° North 147 169 800  Level Houston Center
Sun 04:53:14 PM 30.0031 -95.3578 351° North 178 205 2,000 2,658 Climbing Houston Center
Sun 04:55:22 PM 30.1350 -95.3831 351° North 238 274 7,800 2,589 Climbing Houston Center
Sun 04:56:24 PM 30.2039 -95.4000 348° North 250 288 10,200 1,742 Climbing Houston Center
Sun 04:57:26 PM 30.2861 -95.4183 349° North 297 342 11,400 1,536 Climbing Houston Center
Sun 04:58:29 PM 30.3750 -95.4400 348° North 322 371 13,400 1,824 Climbing Houston Center
Sun 04:59:31 PM 30.4639 -95.4575 350° North 324 373 15,200 1,790 Climbing Houston Center
Sun 05:00:33 PM 30.5736 -95.4850 348° North 333 383 17,100 1,452 Climbing Houston Center
Sun 05:01:35 PM 30.6686 -95.5064 349° North 345 397 18,200 935 Climbing Houston Center
Sun 05:03:00 PM 30.7875 -95.5308 350° North  Level FlightAware Approximate
Sun 05:03:39 PM 30.8856 -95.5539 350° North 376 433 20,000  Level Houston Center
Sun 05:04:41 PM 30.9942 -95.5797 348° North 391 450 20,000  Level Houston Center
Sun 05:05:43 PM 31.1011 -95.6036 349° North 388 447 20,000  Level Houston Center
Sun 05:06:45 PM 31.2086 -95.6286 349° North 389 448 20,000  Level Houston Center
Sun 05:07:04 PM 31.2489 -95.6369 350° North 387 445 20,000  Level Fort Worth Center
Sun 05:08:04 PM 31.3494 -95.6644 347° North 387 445 20,000  Level Fort Worth Center
Sun 05:09:52 PM 31.5075 -95.7625 332° Northwest 383 441 20,000  Level Houston Center
Sun 05:10:54 PM 31.6183 -95.8353 331° Northwest 380 437 20,000  Level Houston Center
Sun 05:11:56 PM 31.7097 -95.8978 330° Northwest 378 435 20,000  Level Houston Center
Sun 05:12:58 PM 31.8028 -95.9594 331° Northwest 381 438 20,000  Level Houston Center
Sun 05:14:00 PM 31.8950 -96.0211 330° Northwest 379 436 20,000 -774 Level Houston Center
Sun 05:15:02 PM 31.9869 -96.0819 331° Northwest 379 436 18,400 -1,887 Descending Houston Center
Sun 05:16:04 PM 32.0775 -96.1458 329° Northwest 371 427 16,100 -2,115 Descending Fort Worth Center
Sun 05:17:04 PM 32.1533 -96.1986 329° Northwest 340 391 14,100 -2,000 Descending Fort Worth Center
Sun 05:18:04 PM 32.2331 -96.2492 332° Northwest 304 350 12,100 -1,850 Descending Fort Worth Center
Sun 05:19:04 PM 32.2919 -96.2853 333° Northwest 273 314 10,400 -1,550 Descending Fort Worth Center
Sun 05:20:04 PM 32.3569 -96.3264 332° Northwest 251 289 9,000 -700 Descending Fort Worth Center
Sun 05:21:04 PM 32.4053 -96.3750 320° Northwest 251 289 9,000  Level Fort Worth Center
Sun 05:22:04 PM 32.4664 -96.4358 320° Northwest 256 295 9,000 -450 Level Fort Worth Center
Sun 05:23:04 PM 32.5128 -96.4847 318° Northwest 256 295 8,100 -1,250 Descending Fort Worth Center
Sun 05:24:04 PM 32.5694 -96.5456 318° Northwest 251 289 6,500 -1,500 Descending Fort Worth Center
Sun 05:25:04 PM 32.6156 -96.5922 320° Northwest 244 281 5,100 -1,100 Descending Fort Worth Center
Sun 05:26:04 PM 32.6683 -96.6483 318° Northwest 244 281 4,300 -1,019 Descending Fort Worth Center
Sun 05:26:50 PM 32.7000 -96.6833 317° Northwest 240 276 3,300 -1,213 Descending Dallas / Fort Worth TRACON
Sun 05:27:38 PM 32.7500 -96.7333 320° Northwest 212 244 2,400 -632 Descending Dallas / Fort Worth TRACON
Sun 05:28:44 PM 32.7833 -96.7667 320° Northwest 172 198 2,100 -524 Descending Dallas / Fort Worth TRACON
Sun 05:29:44 PM 32.8167 -96.8000 320° Northwest 119 137 1,300 -800 Descending Dallas / Fort Worth TRACON

Login

Don't have an account? Register now (free) for customized features, flight alerts, and more!